sensor_id;sensor_type;location;lat;lon;timestamp;temperature;humidity
17080;DHT22;8655;57.106;-2.088;2023-04-25T00:00:45;17.00;41.60
17080;DHT22;8655;57.106;-2.088;2023-04-25T00:03:11;16.90;41.50
17080;DHT22;8655;57.106;-2.088;2023-04-25T00:05:37;17.00;41.60
17080;DHT22;8655;57.106;-2.088;2023-04-25T00:08:04;16.90;41.50
17080;DHT22;8655;57.106;-2.088;2023-04-25T00:10:30;16.90;41.50
17080;DHT22;8655;57.106;-2.088;2023-04-25T00:12:56;16.90;41.50
17080;DHT22;8655;57.106;-2.088;2023-04-25T00:15:23;16.90;41.50
17080;DHT22;8655;57.106;-2.088;2023-04-25T00:17:49;16.90;41.50
17080;DHT22;8655;57.106;-2.088;2023-04-25T00:20:18;16.90;41.40
17080;DHT22;8655;57.106;-2.088;2023-04-25T00:22:43;16.90;41.40
17080;DHT22;8655;57.106;-2.088;2023-04-25T00:25:09;16.80;41.40
17080;DHT22;8655;57.106;-2.088;2023-04-25T00:27:35;16.80;41.40
17080;DHT22;8655;57.106;-2.088;2023-04-25T00:30:01;16.80;41.40
17080;DHT22;8655;57.106;-2.088;2023-04-25T00:32:26;16.80;41.40
17080;DHT22;8655;57.106;-2.088;2023-04-25T00:34:52;16.80;41.40
17080;DHT22;8655;57.106;-2.088;2023-04-25T00:37:18;16.80;41.40
17080;DHT22;8655;57.106;-2.088;2023-04-25T00:39:43;16.80;41.40
17080;DHT22;8655;57.106;-2.088;2023-04-25T00:42:10;16.80;41.40
17080;DHT22;8655;57.106;-2.088;2023-04-25T00:44:37;16.70;41.30
17080;DHT22;8655;57.106;-2.088;2023-04-25T00:47:03;16.70;41.30
17080;DHT22;8655;57.106;-2.088;2023-04-25T00:49:29;16.70;41.30
17080;DHT22;8655;57.106;-2.088;2023-04-25T00:51:56;16.70;41.30
17080;DHT22;8655;57.106;-2.088;2023-04-25T00:54:22;16.70;41.30
17080;DHT22;8655;57.106;-2.088;2023-04-25T00:56:48;16.70;41.30
17080;DHT22;8655;57.106;-2.088;2023-04-25T00:59:15;16.70;41.30
17080;DHT22;8655;57.106;-2.088;2023-04-25T01:01:41;16.70;41.30
17080;DHT22;8655;57.106;-2.088;2023-04-25T01:04:07;16.70;41.30
17080;DHT22;8655;57.106;-2.088;2023-04-25T01:06:33;16.60;41.20
17080;DHT22;8655;57.106;-2.088;2023-04-25T01:08:59;16.60;41.20
17080;DHT22;8655;57.106;-2.088;2023-04-25T01:11:25;16.60;41.20
17080;DHT22;8655;57.106;-2.088;2023-04-25T01:13:51;16.60;41.80
17080;DHT22;8655;57.106;-2.088;2023-04-25T01:16:16;16.60;41.20
17080;DHT22;8655;57.106;-2.088;2023-04-25T01:18:42;16.60;41.20
17080;DHT22;8655;57.106;-2.088;2023-04-25T01:21:10;16.60;41.20
17080;DHT22;8655;57.106;-2.088;2023-04-25T01:23:37;16.60;41.20
17080;DHT22;8655;57.106;-2.088;2023-04-25T01:26:04;16.60;41.20
17080;DHT22;8655;57.106;-2.088;2023-04-25T01:28:30;16.50;41.10
17080;DHT22;8655;57.106;-2.088;2023-04-25T01:30:57;16.60;41.20
17080;DHT22;8655;57.106;-2.088;2023-04-25T01:33:22;16.50;41.10
17080;DHT22;8655;57.106;-2.088;2023-04-25T01:35:48;16.50;41.10
17080;DHT22;8655;57.106;-2.088;2023-04-25T01:38:14;16.50;41.10
17080;DHT22;8655;57.106;-2.088;2023-04-25T01:40:40;16.50;41.10
17080;DHT22;8655;57.106;-2.088;2023-04-25T01:43:08;16.50;41.10
17080;DHT22;8655;57.106;-2.088;2023-04-25T01:45:40;16.50;41.10
17080;DHT22;8655;57.106;-2.088;2023-04-25T01:48:07;16.50;41.10
17080;DHT22;8655;57.106;-2.088;2023-04-25T01:50:33;16.50;41.10
17080;DHT22;8655;57.106;-2.088;2023-04-25T01:52:59;16.50;41.10
17080;DHT22;8655;57.106;-2.088;2023-04-25T01:55:26;16.40;41.00
17080;DHT22;8655;57.106;-2.088;2023-04-25T01:57:51;16.40;41.60
17080;DHT22;8655;57.106;-2.088;2023-04-25T02:00:17;16.40;41.00
17080;DHT22;8655;57.106;-2.088;2023-04-25T02:02:43;16.40;41.10
17080;DHT22;8655;57.106;-2.088;2023-04-25T02:05:09;16.40;41.00
17080;DHT22;8655;57.106;-2.088;2023-04-25T02:07:35;16.40;41.00
17080;DHT22;8655;57.106;-2.088;2023-04-25T02:10:00;16.40;41.00
17080;DHT22;8655;57.106;-2.088;2023-04-25T02:12:27;16.40;41.00
17080;DHT22;8655;57.106;-2.088;2023-04-25T02:14:53;16.40;41.00
17080;DHT22;8655;57.106;-2.088;2023-04-25T02:17:19;16.40;41.00
17080;DHT22;8655;57.106;-2.088;2023-04-25T02:19:44;16.30;40.90
17080;DHT22;8655;57.106;-2.088;2023-04-25T02:22:10;16.30;41.00
17080;DHT22;8655;57.106;-2.088;2023-04-25T02:24:36;16.30;40.90
17080;DHT22;8655;57.106;-2.088;2023-04-25T02:27:02;16.30;40.90
17080;DHT22;8655;57.106;-2.088;2023-04-25T02:29:28;16.30;40.90
17080;DHT22;8655;57.106;-2.088;2023-04-25T02:31:54;16.30;40.90
17080;DHT22;8655;57.106;-2.088;2023-04-25T02:34:20;16.30;41.60
17080;DHT22;8655;57.106;-2.088;2023-04-25T02:36:47;16.30;40.90
17080;DHT22;8655;57.106;-2.088;2023-04-25T02:39:13;16.30;40.90
17080;DHT22;8655;57.106;-2.088;2023-04-25T02:41:38;16.30;40.90
17080;DHT22;8655;57.106;-2.088;2023-04-25T02:44:04;16.20;40.90
17080;DHT22;8655;57.106;-2.088;2023-04-25T02:46:30;16.20;40.90
17080;DHT22;8655;57.106;-2.088;2023-04-25T02:48:55;16.30;40.90
17080;DHT22;8655;57.106;-2.088;2023-04-25T02:51:21;16.20;40.90
17080;DHT22;8655;57.106;-2.088;2023-04-25T02:53:47;16.20;40.90
17080;DHT22;8655;57.106;-2.088;2023-04-25T02:56:12;16.20;40.90
17080;DHT22;8655;57.106;-2.088;2023-04-25T02:58:39;16.20;40.90
17080;DHT22;8655;57.106;-2.088;2023-04-25T03:01:05;16.20;40.90
17080;DHT22;8655;57.106;-2.088;2023-04-25T03:03:30;16.20;40.90
17080;DHT22;8655;57.106;-2.088;2023-04-25T03:05:56;16.20;40.90
17080;DHT22;8655;57.106;-2.088;2023-04-25T03:08:22;16.20;40.90
17080;DHT22;8655;57.106;-2.088;2023-04-25T03:10:48;16.20;40.90
17080;DHT22;8655;57.106;-2.088;2023-04-25T03:13:15;16.10;40.80
17080;DHT22;8655;57.106;-2.088;2023-04-25T03:15:41;16.10;40.80
17080;DHT22;8655;57.106;-2.088;2023-04-25T03:18:06;16.10;40.80
17080;DHT22;8655;57.106;-2.088;2023-04-25T03:20:32;16.10;40.80
17080;DHT22;8655;57.106;-2.088;2023-04-25T03:22:58;16.10;40.80
17080;DHT22;8655;57.106;-2.088;2023-04-25T03:25:23;16.10;40.80
17080;DHT22;8655;57.106;-2.088;2023-04-25T03:27:49;16.10;40.80
17080;DHT22;8655;57.106;-2.088;2023-04-25T03:30:15;16.10;40.80
17080;DHT22;8655;57.106;-2.088;2023-04-25T03:32:40;16.10;40.80
17080;DHT22;8655;57.106;-2.088;2023-04-25T03:35:06;16.00;40.70
17080;DHT22;8655;57.106;-2.088;2023-04-25T03:37:32;16.00;40.70
17080;DHT22;8655;57.106;-2.088;2023-04-25T03:39:57;16.00;40.70
17080;DHT22;8655;57.106;-2.088;2023-04-25T03:42:23;16.00;40.70
17080;DHT22;8655;57.106;-2.088;2023-04-25T03:44:50;16.00;40.70
17080;DHT22;8655;57.106;-2.088;2023-04-25T03:47:16;16.00;40.70
17080;DHT22;8655;57.106;-2.088;2023-04-25T03:49:42;16.00;40.70
17080;DHT22;8655;57.106;-2.088;2023-04-25T03:52:08;16.00;40.70
17080;DHT22;8655;57.106;-2.088;2023-04-25T03:54:33;16.00;40.70
17080;DHT22;8655;57.106;-2.088;2023-04-25T03:56:59;16.00;40.70
17080;DHT22;8655;57.106;-2.088;2023-04-25T03:59:25;15.90;40.60
17080;DHT22;8655;57.106;-2.088;2023-04-25T04:01:52;16.00;40.70
17080;DHT22;8655;57.106;-2.088;2023-04-25T04:04:18;15.90;40.60
17080;DHT22;8655;57.106;-2.088;2023-04-25T04:06:44;15.90;40.60
17080;DHT22;8655;57.106;-2.088;2023-04-25T04:09:09;15.90;40.60
17080;DHT22;8655;57.106;-2.088;2023-04-25T04:11:37;15.90;40.60
17080;DHT22;8655;57.106;-2.088;2023-04-25T04:14:05;15.90;40.60
17080;DHT22;8655;57.106;-2.088;2023-04-25T04:16:31;15.90;40.60
17080;DHT22;8655;57.106;-2.088;2023-04-25T04:18:57;15.90;40.60
17080;DHT22;8655;57.106;-2.088;2023-04-25T04:21:22;15.90;40.60
17080;DHT22;8655;57.106;-2.088;2023-04-25T04:23:48;15.90;40.60
17080;DHT22;8655;57.106;-2.088;2023-04-25T04:26:14;15.90;40.60
17080;DHT22;8655;57.106;-2.088;2023-04-25T04:28:42;15.90;40.60
17080;DHT22;8655;57.106;-2.088;2023-04-25T04:31:09;15.90;40.60
17080;DHT22;8655;57.106;-2.088;2023-04-25T04:33:35;15.80;40.50
17080;DHT22;8655;57.106;-2.088;2023-04-25T04:36:02;15.80;40.50
17080;DHT22;8655;57.106;-2.088;2023-04-25T04:38:29;15.80;40.60
17080;DHT22;8655;57.106;-2.088;2023-04-25T04:40:55;15.80;40.60
17080;DHT22;8655;57.106;-2.088;2023-04-25T04:43:21;15.80;40.60
17080;DHT22;8655;57.106;-2.088;2023-04-25T04:45:48;15.80;40.50
17080;DHT22;8655;57.106;-2.088;2023-04-25T04:48:15;15.80;40.60
17080;DHT22;8655;57.106;-2.088;2023-04-25T04:50:43;15.80;40.60
17080;DHT22;8655;57.106;-2.088;2023-04-25T04:53:11;15.80;40.60
17080;DHT22;8655;57.106;-2.088;2023-04-25T04:55:37;15.80;40.60
17080;DHT22;8655;57.106;-2.088;2023-04-25T04:58:02;15.80;40.60
17080;DHT22;8655;57.106;-2.088;2023-04-25T05:00:28;15.70;40.50
17080;DHT22;8655;57.106;-2.088;2023-04-25T05:02:55;15.80;40.60
17080;DHT22;8655;57.106;-2.088;2023-04-25T05:05:21;15.70;40.50
17080;DHT22;8655;57.106;-2.088;2023-04-25T05:07:47;15.70;40.50
17080;DHT22;8655;57.106;-2.088;2023-04-25T05:10:13;15.70;40.50
17080;DHT22;8655;57.106;-2.088;2023-04-25T05:12:38;15.70;40.50
17080;DHT22;8655;57.106;-2.088;2023-04-25T05:15:04;15.70;40.50
17080;DHT22;8655;57.106;-2.088;2023-04-25T05:17:30;15.70;40.50
17080;DHT22;8655;57.106;-2.088;2023-04-25T05:19:56;15.70;40.50
17080;DHT22;8655;57.106;-2.088;2023-04-25T05:22:22;15.70;40.50
17080;DHT22;8655;57.106;-2.088;2023-04-25T05:24:48;15.60;40.40
17080;DHT22;8655;57.106;-2.088;2023-04-25T05:27:16;15.60;40.40
17080;DHT22;8655;57.106;-2.088;2023-04-25T05:29:42;15.60;40.40
17080;DHT22;8655;57.106;-2.088;2023-04-25T05:32:07;15.70;40.50
17080;DHT22;8655;57.106;-2.088;2023-04-25T05:34:34;15.60;40.40
17080;DHT22;8655;57.106;-2.088;2023-04-25T05:37:00;15.60;40.40
17080;DHT22;8655;57.106;-2.088;2023-04-25T05:39:26;15.60;40.40
17080;DHT22;8655;57.106;-2.088;2023-04-25T05:41:52;15.60;40.40
17080;DHT22;8655;57.106;-2.088;2023-04-25T05:44:18;15.60;40.40
17080;DHT22;8655;57.106;-2.088;2023-04-25T05:46:43;15.60;40.40
17080;DHT22;8655;57.106;-2.088;2023-04-25T05:49:09;15.60;40.40
17080;DHT22;8655;57.106;-2.088;2023-04-25T05:51:35;15.60;40.50
17080;DHT22;8655;57.106;-2.088;2023-04-25T05:54:01;15.60;40.50
17080;DHT22;8655;57.106;-2.088;2023-04-25T05:56:26;15.60;40.50
17080;DHT22;8655;57.106;-2.088;2023-04-25T05:58:52;15.60;40.50
17080;DHT22;8655;57.106;-2.088;2023-04-25T06:01:18;15.60;40.50
17080;DHT22;8655;57.106;-2.088;2023-04-25T06:03:43;15.70;40.50
17080;DHT22;8655;57.106;-2.088;2023-04-25T06:06:11;15.70;40.50
17080;DHT22;8655;57.106;-2.088;2023-04-25T06:08:37;15.80;40.60
17080;DHT22;8655;57.106;-2.088;2023-04-25T06:11:03;15.80;40.60
17080;DHT22;8655;57.106;-2.088;2023-04-25T06:13:29;15.90;40.60
17080;DHT22;8655;57.106;-2.088;2023-04-25T06:15:55;15.90;40.60
17080;DHT22;8655;57.106;-2.088;2023-04-25T06:18:21;15.90;40.60
17080;DHT22;8655;57.106;-2.088;2023-04-25T06:20:47;16.00;40.60
17080;DHT22;8655;57.106;-2.088;2023-04-25T06:23:12;16.10;40.70
17080;DHT22;8655;57.106;-2.088;2023-04-25T06:25:38;16.10;40.70
17080;DHT22;8655;57.106;-2.088;2023-04-25T06:28:04;16.20;40.70
17080;DHT22;8655;57.106;-2.088;2023-04-25T06:30:29;16.20;40.70
17080;DHT22;8655;57.106;-2.088;2023-04-25T06:32:55;16.30;40.70
17080;DHT22;8655;57.106;-2.088;2023-04-25T06:35:27;16.30;40.70
17080;DHT22;8655;57.106;-2.088;2023-04-25T06:37:52;16.40;40.90
17080;DHT22;8655;57.106;-2.088;2023-04-25T06:40:18;16.40;40.80
17080;DHT22;8655;57.106;-2.088;2023-04-25T06:42:44;16.50;40.80
17080;DHT22;8655;57.106;-2.088;2023-04-25T06:45:10;16.50;40.80
17080;DHT22;8655;57.106;-2.088;2023-04-25T06:47:35;16.60;40.90
17080;DHT22;8655;57.106;-2.088;2023-04-25T06:50:01;16.60;40.90
17080;DHT22;8655;57.106;-2.088;2023-04-25T06:52:27;16.70;41.00
17080;DHT22;8655;57.106;-2.088;2023-04-25T06:54:52;16.70;40.90
17080;DHT22;8655;57.106;-2.088;2023-04-25T06:57:18;16.80;41.00
17080;DHT22;8655;57.106;-2.088;2023-04-25T06:59:44;16.80;41.00
17080;DHT22;8655;57.106;-2.088;2023-04-25T07:02:09;16.90;41.10
17080;DHT22;8655;57.106;-2.088;2023-04-25T07:04:35;16.90;41.00
17080;DHT22;8655;57.106;-2.088;2023-04-25T07:07:01;17.00;41.10
17080;DHT22;8655;57.106;-2.088;2023-04-25T07:09:29;17.10;41.80
17080;DHT22;8655;57.106;-2.088;2023-04-25T07:11:55;17.10;41.20
17080;DHT22;8655;57.106;-2.088;2023-04-25T07:14:22;17.10;41.20
17080;DHT22;8655;57.106;-2.088;2023-04-25T07:16:47;17.20;41.30
17080;DHT22;8655;57.106;-2.088;2023-04-25T07:19:13;17.20;41.30
17080;DHT22;8655;57.106;-2.088;2023-04-25T07:21:39;17.30;41.30
17080;DHT22;8655;57.106;-2.088;2023-04-25T07:24:05;17.30;41.30
17080;DHT22;8655;57.106;-2.088;2023-04-25T07:26:31;17.30;41.30
17080;DHT22;8655;57.106;-2.088;2023-04-25T07:28:56;17.40;41.40
17080;DHT22;8655;57.106;-2.088;2023-04-25T07:31:22;17.40;41.40
17080;DHT22;8655;57.106;-2.088;2023-04-25T07:33:48;17.50;41.40
17080;DHT22;8655;57.106;-2.088;2023-04-25T07:36:14;17.50;41.40
17080;DHT22;8655;57.106;-2.088;2023-04-25T07:38:41;17.50;41.40
17080;DHT22;8655;57.106;-2.088;2023-04-25T07:41:07;17.60;41.50
17080;DHT22;8655;57.106;-2.088;2023-04-25T07:43:32;17.60;41.40
17080;DHT22;8655;57.106;-2.088;2023-04-25T07:45:58;17.60;41.40
17080;DHT22;8655;57.106;-2.088;2023-04-25T07:48:23;17.70;41.50
17080;DHT22;8655;57.106;-2.088;2023-04-25T07:50:49;17.70;41.40
17080;DHT22;8655;57.106;-2.088;2023-04-25T07:53:15;17.80;41.50
17080;DHT22;8655;57.106;-2.088;2023-04-25T07:55:41;17.80;41.40
17080;DHT22;8655;57.106;-2.088;2023-04-25T07:58:07;17.80;41.40
17080;DHT22;8655;57.106;-2.088;2023-04-25T08:00:33;17.80;41.40
17080;DHT22;8655;57.106;-2.088;2023-04-25T08:02:59;17.80;41.40
17080;DHT22;8655;57.106;-2.088;2023-04-25T08:05:24;17.90;41.50
17080;DHT22;8655;57.106;-2.088;2023-04-25T08:07:50;17.90;41.50
17080;DHT22;8655;57.106;-2.088;2023-04-25T08:10:16;17.90;41.50
17080;DHT22;8655;57.106;-2.088;2023-04-25T08:12:42;17.90;41.50
17080;DHT22;8655;57.106;-2.088;2023-04-25T08:15:08;17.90;41.50
17080;DHT22;8655;57.106;-2.088;2023-04-25T08:17:34;17.90;41.50
17080;DHT22;8655;57.106;-2.088;2023-04-25T08:20:00;17.90;41.50
17080;DHT22;8655;57.106;-2.088;2023-04-25T08:22:25;17.90;41.50
17080;DHT22;8655;57.106;-2.088;2023-04-25T08:24:51;17.90;41.60
17080;DHT22;8655;57.106;-2.088;2023-04-25T08:27:18;17.80;41.40
17080;DHT22;8655;57.106;-2.088;2023-04-25T08:29:44;17.80;41.40
17080;DHT22;8655;57.106;-2.088;2023-04-25T08:32:09;17.80;41.40
17080;DHT22;8655;57.106;-2.088;2023-04-25T08:34:35;17.80;41.50
17080;DHT22;8655;57.106;-2.088;2023-04-25T08:37:03;17.80;41.50
17080;DHT22;8655;57.106;-2.088;2023-04-25T08:39:29;17.80;41.50
17080;DHT22;8655;57.106;-2.088;2023-04-25T08:41:56;17.80;41.50
17080;DHT22;8655;57.106;-2.088;2023-04-25T08:44:22;17.80;41.50
17080;DHT22;8655;57.106;-2.088;2023-04-25T08:46:49;17.70;41.40
17080;DHT22;8655;57.106;-2.088;2023-04-25T08:49:16;17.70;41.40
17080;DHT22;8655;57.106;-2.088;2023-04-25T08:51:46;17.70;41.40
17080;DHT22;8655;57.106;-2.088;2023-04-25T08:54:14;17.70;41.40
17080;DHT22;8655;57.106;-2.088;2023-04-25T08:56:43;17.70;41.40
17080;DHT22;8655;57.106;-2.088;2023-04-25T08:59:11;17.60;41.40
17080;DHT22;8655;57.106;-2.088;2023-04-25T09:01:36;17.60;41.40
17080;DHT22;8655;57.106;-2.088;2023-04-25T09:04:02;17.60;41.40
17080;DHT22;8655;57.106;-2.088;2023-04-25T09:06:31;17.60;41.40
17080;DHT22;8655;57.106;-2.088;2023-04-25T09:09:04;17.60;41.40
17080;DHT22;8655;57.106;-2.088;2023-04-25T09:11:34;17.60;41.40
17080;DHT22;8655;57.106;-2.088;2023-04-25T09:14:21;17.50;41.30
17080;DHT22;8655;57.106;-2.088;2023-04-25T09:19:30;17.50;41.30
17080;DHT22;8655;57.106;-2.088;2023-04-25T09:21:58;17.50;41.30
17080;DHT22;8655;57.106;-2.088;2023-04-25T09:26:59;17.50;41.30
17080;DHT22;8655;57.106;-2.088;2023-04-25T09:29:33;17.40;41.30
17080;DHT22;8655;57.106;-2.088;2023-04-25T09:32:26;17.40;41.30
17080;DHT22;8655;57.106;-2.088;2023-04-25T09:34:56;17.40;41.30
17080;DHT22;8655;57.106;-2.088;2023-04-25T09:37:29;17.40;41.30
17080;DHT22;8655;57.106;-2.088;2023-04-25T09:39:59;17.40;41.30
17080;DHT22;8655;57.106;-2.088;2023-04-25T09:42:28;17.40;41.30
17080;DHT22;8655;57.106;-2.088;2023-04-25T09:44:55;17.40;41.30
17080;DHT22;8655;57.106;-2.088;2023-04-25T09:47:24;17.40;41.30
17080;DHT22;8655;57.106;-2.088;2023-04-25T09:49:50;17.30;41.30
17080;DHT22;8655;57.106;-2.088;2023-04-25T09:52:18;17.30;41.20
17080;DHT22;8655;57.106;-2.088;2023-04-25T09:54:45;17.30;41.20
17080;DHT22;8655;57.106;-2.088;2023-04-25T09:57:19;17.30;41.90
17080;DHT22;8655;57.106;-2.088;2023-04-25T09:59:46;17.30;41.30
17080;DHT22;8655;57.106;-2.088;2023-04-25T10:02:22;17.30;41.20
17080;DHT22;8655;57.106;-2.088;2023-04-25T10:04:53;17.30;41.30
17080;DHT22;8655;57.106;-2.088;2023-04-25T10:07:25;17.30;41.30
17080;DHT22;8655;57.106;-2.088;2023-04-25T10:10:01;17.20;41.20
17080;DHT22;8655;57.106;-2.088;2023-04-25T10:12:29;17.20;41.20
17080;DHT22;8655;57.106;-2.088;2023-04-25T10:14:58;17.20;41.20
17080;DHT22;8655;57.106;-2.088;2023-04-25T10:17:24;17.20;41.20
17080;DHT22;8655;57.106;-2.088;2023-04-25T10:19:52;17.20;41.20
17080;DHT22;8655;57.106;-2.088;2023-04-25T10:22:36;17.20;41.20
17080;DHT22;8655;57.106;-2.088;2023-04-25T10:25:03;17.20;41.20
17080;DHT22;8655;57.106;-2.088;2023-04-25T10:27:30;17.20;41.20
17080;DHT22;8655;57.106;-2.088;2023-04-25T10:30:14;17.20;41.20
17080;DHT22;8655;57.106;-2.088;2023-04-25T10:32:44;17.10;41.10
17080;DHT22;8655;57.106;-2.088;2023-04-25T10:35:15;17.10;41.10
17080;DHT22;8655;57.106;-2.088;2023-04-25T10:38:03;17.10;41.10
17080;DHT22;8655;57.106;-2.088;2023-04-25T10:40:31;17.10;41.10
17080;DHT22;8655;57.106;-2.088;2023-04-25T10:48:46;17.10;41.10
17080;DHT22;8655;57.106;-2.088;2023-04-25T10:56:21;17.10;41.10
17080;DHT22;8655;57.106;-2.088;2023-04-25T10:58:48;17.00;41.00
17080;DHT22;8655;57.106;-2.088;2023-04-25T11:01:15;17.10;41.10
17080;DHT22;8655;57.106;-2.088;2023-04-25T11:03:42;17.00;41.00
17080;DHT22;8655;57.106;-2.088;2023-04-25T11:06:36;17.00;41.00
17080;DHT22;8655;57.106;-2.088;2023-04-25T11:09:00;17.00;41.00
17080;DHT22;8655;57.106;-2.088;2023-04-25T11:11:26;17.00;41.00
17080;DHT22;8655;57.106;-2.088;2023-04-25T11:13:52;17.00;41.00
17080;DHT22;8655;57.106;-2.088;2023-04-25T11:16:18;17.00;41.00
17080;DHT22;8655;57.106;-2.088;2023-04-25T11:18:44;17.00;41.00
17080;DHT22;8655;57.106;-2.088;2023-04-25T11:21:11;17.00;41.00
17080;DHT22;8655;57.106;-2.088;2023-04-25T11:23:37;17.00;41.00
17080;DHT22;8655;57.106;-2.088;2023-04-25T11:26:03;16.90;40.90
17080;DHT22;8655;57.106;-2.088;2023-04-25T11:28:29;16.90;40.90
17080;DHT22;8655;57.106;-2.088;2023-04-25T11:30:56;16.90;40.90
17080;DHT22;8655;57.106;-2.088;2023-04-25T11:33:25;16.90;40.90
17080;DHT22;8655;57.106;-2.088;2023-04-25T11:35:55;16.90;40.90
17080;DHT22;8655;57.106;-2.088;2023-04-25T11:38:25;16.90;40.80
17080;DHT22;8655;57.106;-2.088;2023-04-25T11:40:54;16.90;40.90
17080;DHT22;8655;57.106;-2.088;2023-04-25T11:43:22;16.90;40.80
17080;DHT22;8655;57.106;-2.088;2023-04-25T11:45:50;16.90;40.80
17080;DHT22;8655;57.106;-2.088;2023-04-25T11:48:18;16.90;40.80
17080;DHT22;8655;57.106;-2.088;2023-04-25T11:50:43;16.90;40.80
17080;DHT22;8655;57.106;-2.088;2023-04-25T11:53:09;16.90;40.80
17080;DHT22;8655;57.106;-2.088;2023-04-25T11:55:36;16.90;40.80
17080;DHT22;8655;57.106;-2.088;2023-04-25T11:58:04;16.90;40.90
17080;DHT22;8655;57.106;-2.088;2023-04-25T12:00:30;16.80;40.70
17080;DHT22;8655;57.106;-2.088;2023-04-25T12:02:57;16.80;40.70
17080;DHT22;8655;57.106;-2.088;2023-04-25T12:05:29;16.80;40.70
17080;DHT22;8655;57.106;-2.088;2023-04-25T12:07:56;16.80;40.70
17080;DHT22;8655;57.106;-2.088;2023-04-25T12:10:24;16.80;40.70
17080;DHT22;8655;57.106;-2.088;2023-04-25T12:12:50;16.80;40.70
17080;DHT22;8655;57.106;-2.088;2023-04-25T12:15:24;16.80;40.70
17080;DHT22;8655;57.106;-2.088;2023-04-25T12:17:52;16.80;40.70
17080;DHT22;8655;57.106;-2.088;2023-04-25T12:20:23;16.80;40.70
17080;DHT22;8655;57.106;-2.088;2023-04-25T12:22:49;16.80;40.70
17080;DHT22;8655;57.106;-2.088;2023-04-25T12:25:35;16.80;40.70
17080;DHT22;8655;57.106;-2.088;2023-04-25T12:33:23;16.80;40.70
17080;DHT22;8655;57.106;-2.088;2023-04-25T12:35:48;16.70;40.60
17080;DHT22;8655;57.106;-2.088;2023-04-25T12:38:24;16.70;40.60
17080;DHT22;8655;57.106;-2.088;2023-04-25T12:40:50;16.70;40.60
17080;DHT22;8655;57.106;-2.088;2023-04-25T12:43:16;16.70;40.60
17080;DHT22;8655;57.106;-2.088;2023-04-25T12:45:43;16.70;40.60
17080;DHT22;8655;57.106;-2.088;2023-04-25T12:48:09;16.70;40.60
17080;DHT22;8655;57.106;-2.088;2023-04-25T12:50:35;16.70;40.60
17080;DHT22;8655;57.106;-2.088;2023-04-25T12:53:01;16.70;40.60
17080;DHT22;8655;57.106;-2.088;2023-04-25T12:55:26;16.70;40.60
17080;DHT22;8655;57.106;-2.088;2023-04-25T12:57:52;16.70;40.60
17080;DHT22;8655;57.106;-2.088;2023-04-25T13:00:18;16.70;40.60
17080;DHT22;8655;57.106;-2.088;2023-04-25T13:02:45;16.70;40.60
17080;DHT22;8655;57.106;-2.088;2023-04-25T13:05:12;16.70;40.50
17080;DHT22;8655;57.106;-2.088;2023-04-25T13:07:38;16.70;40.50
17080;DHT22;8655;57.106;-2.088;2023-04-25T13:10:04;16.70;40.50
17080;DHT22;8655;57.106;-2.088;2023-04-25T13:12:31;16.70;40.50
17080;DHT22;8655;57.106;-2.088;2023-04-25T13:14:57;16.70;40.50
17080;DHT22;8655;57.106;-2.088;2023-04-25T13:17:22;16.70;40.50
17080;DHT22;8655;57.106;-2.088;2023-04-25T13:19:48;16.70;40.60
17080;DHT22;8655;57.106;-2.088;2023-04-25T13:22:14;16.70;40.50
17080;DHT22;8655;57.106;-2.088;2023-04-25T13:24:42;16.70;40.60
17080;DHT22;8655;57.106;-2.088;2023-04-25T13:27:07;16.70;40.60
17080;DHT22;8655;57.106;-2.088;2023-04-25T13:29:33;16.60;40.40
17080;DHT22;8655;57.106;-2.088;2023-04-25T13:32:01;16.60;40.40
17080;DHT22;8655;57.106;-2.088;2023-04-25T13:34:28;16.60;40.40
17080;DHT22;8655;57.106;-2.088;2023-04-25T13:36:53;16.60;40.50
17080;DHT22;8655;57.106;-2.088;2023-04-25T13:39:19;16.60;40.40
17080;DHT22;8655;57.106;-2.088;2023-04-25T13:41:45;16.60;40.40
17080;DHT22;8655;57.106;-2.088;2023-04-25T13:44:10;16.60;40.40
17080;DHT22;8655;57.106;-2.088;2023-04-25T13:46:36;16.60;40.40
17080;DHT22;8655;57.106;-2.088;2023-04-25T13:49:06;16.60;40.40
17080;DHT22;8655;57.106;-2.088;2023-04-25T13:51:31;16.60;40.40
17080;DHT22;8655;57.106;-2.088;2023-04-25T13:53:57;16.60;40.40
17080;DHT22;8655;57.106;-2.088;2023-04-25T13:56:23;16.60;40.40
17080;DHT22;8655;57.106;-2.088;2023-04-25T13:58:50;16.60;40.40
17080;DHT22;8655;57.106;-2.088;2023-04-25T14:01:17;16.60;40.40
17080;DHT22;8655;57.106;-2.088;2023-04-25T14:03:43;16.60;40.40
17080;DHT22;8655;57.106;-2.088;2023-04-25T14:06:08;16.60;40.40
17080;DHT22;8655;57.106;-2.088;2023-04-25T14:08:34;16.60;40.40
17080;DHT22;8655;57.106;-2.088;2023-04-25T14:11:00;16.60;40.40
17080;DHT22;8655;57.106;-2.088;2023-04-25T14:13:26;16.60;40.40
17080;DHT22;8655;57.106;-2.088;2023-04-25T14:15:52;16.60;40.40
17080;DHT22;8655;57.106;-2.088;2023-04-25T14:18:18;16.60;40.40
17080;DHT22;8655;57.106;-2.088;2023-04-25T14:20:45;16.60;40.40
17080;DHT22;8655;57.106;-2.088;2023-04-25T14:23:10;16.60;40.40
17080;DHT22;8655;57.106;-2.088;2023-04-25T14:25:36;16.60;40.40
17080;DHT22;8655;57.106;-2.088;2023-04-25T14:28:03;16.50;40.20
17080;DHT22;8655;57.106;-2.088;2023-04-25T14:30:29;16.50;40.30
17080;DHT22;8655;57.106;-2.088;2023-04-25T14:32:54;16.50;40.30
17080;DHT22;8655;57.106;-2.088;2023-04-25T14:35:20;16.50;40.90
17080;DHT22;8655;57.106;-2.088;2023-04-25T14:37:46;16.50;40.20
17080;DHT22;8655;57.106;-2.088;2023-04-25T14:40:13;16.50;40.20
17080;DHT22;8655;57.106;-2.088;2023-04-25T14:42:40;16.50;40.20
17080;DHT22;8655;57.106;-2.088;2023-04-25T14:45:07;16.50;40.30
17080;DHT22;8655;57.106;-2.088;2023-04-25T14:47:34;16.50;40.20
17080;DHT22;8655;57.106;-2.088;2023-04-25T14:50:00;16.50;40.20
17080;DHT22;8655;57.106;-2.088;2023-04-25T14:52:27;16.50;40.20
17080;DHT22;8655;57.106;-2.088;2023-04-25T14:54:52;16.50;40.20
17080;DHT22;8655;57.106;-2.088;2023-04-25T14:57:18;16.50;40.20
17080;DHT22;8655;57.106;-2.088;2023-04-25T14:59:44;16.50;40.20
17080;DHT22;8655;57.106;-2.088;2023-04-25T15:02:10;16.50;40.20
17080;DHT22;8655;57.106;-2.088;2023-04-25T15:04:36;16.50;40.20
17080;DHT22;8655;57.106;-2.088;2023-04-25T15:07:02;16.50;40.20
17080;DHT22;8655;57.106;-2.088;2023-04-25T15:09:29;16.50;40.20
17080;DHT22;8655;57.106;-2.088;2023-04-25T15:11:56;16.50;40.20
17080;DHT22;8655;57.106;-2.088;2023-04-25T15:14:22;16.50;40.20
17080;DHT22;8655;57.106;-2.088;2023-04-25T15:16:47;16.50;40.20
17080;DHT22;8655;57.106;-2.088;2023-04-25T15:19:13;16.50;40.20
17080;DHT22;8655;57.106;-2.088;2023-04-25T15:21:39;16.50;40.20
17080;DHT22;8655;57.106;-2.088;2023-04-25T15:24:05;16.50;40.20
17080;DHT22;8655;57.106;-2.088;2023-04-25T15:26:31;16.50;40.20
17080;DHT22;8655;57.106;-2.088;2023-04-25T15:28:57;16.40;40.10
17080;DHT22;8655;57.106;-2.088;2023-04-25T15:31:23;16.40;40.10
17080;DHT22;8655;57.106;-2.088;2023-04-25T15:33:49;16.40;40.10
17080;DHT22;8655;57.106;-2.088;2023-04-25T15:36:14;16.40;40.10
17080;DHT22;8655;57.106;-2.088;2023-04-25T15:38:42;16.40;40.20
17080;DHT22;8655;57.106;-2.088;2023-04-25T15:41:07;16.40;40.20
17080;DHT22;8655;57.106;-2.088;2023-04-25T15:43:33;16.40;40.20
17080;DHT22;8655;57.106;-2.088;2023-04-25T15:46:03;16.40;40.10
17080;DHT22;8655;57.106;-2.088;2023-04-25T15:48:29;16.40;40.10